Time;durP1;ratioP1;P1;durP2;ratioP2;P2;SDS_P1;SDS_P2;PMS_P1;PMS_P2;Temp;Humidity;BMP_temperature;BMP_pressure;BME280_temperature;BME280_humidity;BME280_pressure;Samples;Min_cycle;Max_cycle;Signal;HPM_P1;HPM_P2
2021/04/04 00:01:18;;;;;;;25.30;11.30;;;7.40;54.10;;;;;;6308374;22;20479;-92
2021/04/04 00:03:44;;;;;;;23.83;16.23;;;7.40;54.10;;;;;;6307808;22;20030;-93
2021/04/04 00:06:09;;;;;;;24.55;15.48;;;7.40;54.20;;;;;;6308027;22;20003;-93
2021/04/04 00:08:35;;;;;;;23.30;12.88;;;7.30;54.20;;;;;;6309002;22;20001;-92
2021/04/04 00:11:01;;;;;;;14.98;11.00;;;7.40;54.30;;;;;;6307795;22;20442;-92
2021/04/04 00:13:27;;;;;;;15.77;9.57;;;7.40;54.30;;;;;;6308665;22;19999;-92
2021/04/04 00:15:52;;;;;;;20.20;10.90;;;7.40;54.30;;;;;;6307822;22;20496;-92
2021/04/04 00:18:18;;;;;;;13.80;10.25;;;7.30;54.30;;;;;;6307849;22;20076;-92
2021/04/04 00:20:44;;;;;;;18.48;11.57;;;7.40;54.40;;;;;;6309206;22;19999;-92
2021/04/04 00:23:09;;;;;;;17.88;10.80;;;7.30;54.60;;;;;;6307817;22;20006;-92
2021/04/04 00:25:35;;;;;;;18.08;11.77;;;7.30;54.50;;;;;;6308029;22;20003;-92
2021/04/04 00:28:01;;;;;;;20.70;12.07;;;7.30;54.50;;;;;;6308954;22;20003;-92
2021/04/04 00:30:27;;;;;;;18.45;12.02;;;7.30;54.60;;;;;;6311571;22;20040;-92
2021/04/04 00:32:52;;;;;;;21.05;13.77;;;7.30;54.60;;;;;;6311514;22;20000;-92
2021/04/04 00:35:20;;;;;;;19.27;12.02;;;7.20;54.80;;;;;;6309866;22;20043;-93
2021/04/04 00:37:47;;;;;;;25.02;12.95;;;7.20;54.70;;;;;;6309865;22;20430;-92
2021/04/04 00:40:25;;;;;;;24.80;12.68;;;7.20;54.70;;;;;;6309463;22;20440;-92
2021/04/04 00:42:51;;;;;;;20.92;12.57;;;7.20;54.80;;;;;;6309851;22;19995;-92
2021/04/04 00:45:19;;;;;;;25.63;13.27;;;7.20;54.90;;;;;;6310405;22;20398;-92
2021/04/04 00:47:47;;;;;;;23.30;13.45;;;7.20;55.10;;;;;;6310532;22;20003;-92
2021/04/04 00:50:14;;;;;;;26.02;13.60;;;7.20;55.10;;;;;;6309905;22;20003;-92
2021/04/04 00:52:40;;;;;;;19.75;13.07;;;7.20;55.10;;;;;;6312041;22;20027;-92
2021/04/04 00:55:07;;;;;;;19.52;12.40;;;7.20;55.20;;;;;;6316752;22;20055;-92
2021/04/04 00:57:34;;;;;;;20.80;13.15;;;7.20;55.20;;;;;;6319914;22;20011;-92
2021/04/04 01:00:01;;;;;;;31.65;19.02;;;7.10;55.30;;;;;;6331131;22;19987;-90
2021/04/04 01:02:27;;;;;;;29.05;16.83;;;7.20;55.30;;;;;;6332235;22;20067;-92
2021/04/04 01:04:55;;;;;;;28.20;16.92;;;7.10;55.20;;;;;;6322936;22;20060;-92
2021/04/04 01:07:20;;;;;;;26.23;15.80;;;7.10;55.30;;;;;;6316596;22;19999;-92
2021/04/04 01:09:47;;;;;;;24.38;14.68;;;7.10;55.30;;;;;;6326456;22;20019;-92
2021/04/04 01:12:23;;;;;;;22.05;14.63;;;7.10;55.40;;;;;;6331175;22;20003;-92
2021/04/04 01:14:57;;;;;;;30.83;18.83;;;7.10;55.40;;;;;;6317518;22;20090;-92
2021/04/04 01:17:24;;;;;;;;;;;7.10;55.50;;;;;;6314506;22;20023;-92
2021/04/04 01:20:00;;;;;;;26.35;15.02;;;7.00;56.40;;;;;;6312842;22;19899;-92
2021/04/04 01:22:56;;;;;;;19.25;13.40;;;7.00;55.60;;;;;;6309576;22;20008;-92
2021/04/04 01:25:27;;;;;;;25.17;15.73;;;7.00;55.60;;;;;;6309546;22;19999;-92
2021/04/04 01:28:00;;;;;;;22.63;14.35;;;7.00;55.60;;;;;;6318391;22;19999;-93
2021/04/04 01:30:30;;;;;;;20.60;12.70;;;6.90;55.60;;;;;;6324913;22;20004;-93
2021/04/04 01:32:58;;;;;;;32.60;19.88;;;6.90;55.70;;;;;;6323552;22;19995;-92
2021/04/04 01:35:27;;;;;;;28.75;18.10;;;6.90;56.60;;;;;;6316712;22;20397;-92
2021/04/04 01:37:58;;;;;;;23.80;15.77;;;6.80;56.30;;;;;;6309230;22;20050;-92
2021/04/04 01:40:25;;;;;;;25.88;15.68;;;6.80;56.30;;;;;;6308743;22;20082;-92
2021/04/04 01:42:53;;;;;;;28.67;17.02;;;6.70;56.50;;;;;;6309272;22;20006;-92
2021/04/04 01:45:21;;;;;;;24.92;15.20;;;6.70;56.60;;;;;;6308965;22;20394;-92
2021/04/04 01:47:47;;;;;;;25.98;13.63;;;6.60;56.70;;;;;;6309846;22;20435;-92
2021/04/04 01:50:14;;;;;;;22.55;14.82;;;6.60;56.80;;;;;;6310559;22;20011;-92
2021/04/04 01:52:40;;;;;;;30.08;18.80;;;6.60;57.10;;;;;;6309356;22;20002;-92
2021/04/04 01:55:08;;;;;;;26.35;16.95;;;6.60;57.50;;;;;;6309597;22;20038;-93
2021/04/04 01:57:34;;;;;;;24.42;14.75;;;6.50;58.10;;;;;;6311256;22;20044;-92
2021/04/04 02:00:06;;;;;;;21.52;14.52;;;6.50;58.20;;;;;;6308909;22;20061;-92
2021/04/04 02:02:32;;;;;;;23.33;15.30;;;6.50;58.10;;;;;;6309694;22;20311;-92
2021/04/04 02:05:01;;;;;;;30.23;17.40;;;6.40;58.00;;;;;;6308411;22;20423;-92
2021/04/04 02:07:28;;;;;;;25.40;16.75;;;6.40;57.90;;;;;;6310328;22;19995;-92
2021/04/04 02:09:55;;;;;;;23.85;14.73;;;6.30;57.90;;;;;;6310193;22;19997;-92
2021/04/04 02:12:21;;;;;;;24.42;14.52;;;6.30;58.10;;;;;;6309161;22;20002;-92
2021/04/04 02:14:48;;;;;;;17.48;11.30;;;6.40;58.00;;;;;;6308738;22;19999;-92
2021/04/04 02:17:15;;;;;;;18.58;11.93;;;6.40;58.10;;;;;;6308868;22;20010;-91
2021/04/04 02:19:42;;;;;;;23.52;12.10;;;6.40;58.00;;;;;;6309797;22;19999;-92
2021/04/04 02:22:08;;;;;;;23.35;12.98;;;6.40;58.00;;;;;;6310705;22;20022;-91
2021/04/04 02:24:34;;;;;;;21.20;12.95;;;6.40;58.20;;;;;;6310426;22;19999;-92
2021/04/04 02:27:00;;;;;;;17.70;11.55;;;6.40;58.40;;;;;;6308965;22;20426;-92
2021/04/04 02:29:26;;;;;;;19.65;12.50;;;6.40;58.30;;;;;;6308688;22;20011;-92
2021/04/04 02:31:56;;;;;;;17.50;11.65;;;6.40;58.80;;;;;;6308830;22;20003;-92
2021/04/04 02:34:30;;;;;;;15.70;11.05;;;6.40;58.60;;;;;;6311723;22;20003;-91
2021/04/04 02:36:56;;;;;;;18.75;10.27;;;6.40;58.50;;;;;;6322971;22;20029;-92
2021/04/04 02:39:33;;;;;;;19.58;13.40;;;6.30;58.50;;;;;;6332485;22;20021;-91
2021/04/04 02:42:02;;;;;;;22.15;12.77;;;6.40;58.90;;;;;;6331273;22;20002;-91
2021/04/04 02:44:30;;;;;;;20.00;13.55;;;6.40;58.80;;;;;;6322792;22;19995;-92
2021/04/04 02:47:02;;;;;;;22.58;13.85;;;6.40;58.70;;;;;;6319087;22;20449;-92
2021/04/04 02:49:33;;;;;;;22.63;14.07;;;6.40;58.80;;;;;;6313077;22;19995;-92
2021/04/04 02:52:03;;;;;;;20.85;13.48;;;6.40;58.80;;;;;;6310403;22;20006;-92
2021/04/04 02:54:32;;;;;;;16.38;11.45;;;6.40;59.10;;;;;;6309430;22;20414;-92
2021/04/04 02:56:59;;;;;;;19.77;12.98;;;6.40;58.90;;;;;;6308864;22;20090;-91
2021/04/04 02:59:33;;;;;;;18.00;10.85;;;6.40;59.00;;;;;;6309856;22;19996;-92
2021/04/04 03:02:02;;;;;;;15.98;11.70;;;6.40;59.00;;;;;;6309305;22;20026;-92
2021/04/04 03:04:32;;;;;;;25.90;16.00;;;6.40;58.90;;;;;;6308335;22;20418;-92
2021/04/04 03:06:59;;;;;;;27.33;15.82;;;6.40;59.40;;;;;;6308380;22;20006;-91
2021/04/04 03:09:29;;;;;;;26.38;15.38;;;6.40;59.30;;;;;;6308337;22;20041;-92
2021/04/04 03:11:55;;;;;;;22.58;14.02;;;6.40;59.60;;;;;;6309187;22;20310;-92
2021/04/04 03:14:23;;;;;;;23.05;14.50;;;6.40;59.50;;;;;;6308489;22;19995;-92
2021/04/04 03:16:49;;;;;;;19.90;14.15;;;6.40;59.50;;;;;;6308455;22;20011;-92
2021/04/04 03:19:17;;;;;;;19.90;12.90;;;6.40;59.70;;;;;;6309211;22;20074;-92
2021/04/04 03:21:45;;;;;;;20.17;13.80;;;6.50;59.70;;;;;;6312791;22;20010;-92
2021/04/04 03:24:12;;;;;;;22.27;14.48;;;6.50;59.70;;;;;;6322653;22;20003;-93
2021/04/04 03:26:40;;;;;;;21.10;12.50;;;6.50;59.70;;;;;;6329829;22;20003;-92
2021/04/04 03:29:07;;;;;;;23.15;13.52;;;6.50;59.60;;;;;;6329950;22;20082;-92
2021/04/04 03:31:33;;;;;;;22.27;12.48;;;6.50;59.50;;;;;;6328283;22;19999;-91
2021/04/04 03:34:00;;;;;;;21.65;12.43;;;6.60;59.40;;;;;;6325999;22;20072;-92
2021/04/04 03:36:27;;;;;;;20.25;13.57;;;6.60;59.30;;;;;;6308375;22;20015;-91
2021/04/04 03:38:54;;;;;;;25.55;17.52;;;6.60;59.20;;;;;;6307951;22;20015;-91
2021/04/04 03:41:23;;;;;;;23.50;16.80;;;6.70;59.40;;;;;;6308379;22;20414;-91
2021/04/04 03:43:50;;;;;;;26.52;16.40;;;6.70;59.30;;;;;;6308301;22;19999;-90
2021/04/04 03:46:21;;;;;;;26.35;17.23;;;6.70;59.40;;;;;;6308030;22;20085;-91
2021/04/04 03:48:48;;;;;;;24.70;15.57;;;6.70;59.30;;;;;;6307675;22;19995;-93
2021/04/04 03:51:14;;;;;;;21.60;14.88;;;6.70;59.30;;;;;;6308689;22;20007;-92
2021/04/04 03:53:44;;;;;;;25.13;16.63;;;6.70;59.40;;;;;;6308038;22;20090;-92
2021/04/04 03:56:14;;;;;;;25.90;17.70;;;6.70;59.40;;;;;;6309269;22;19999;-92
2021/04/04 03:58:41;;;;;;;29.88;17.58;;;6.70;59.70;;;;;;6308835;22;19999;-91
2021/04/04 04:01:11;;;;;;;27.85;17.05;;;6.70;59.60;;;;;;6308007;22;20008;-91
2021/04/04 04:03:39;;;;;;;26.25;16.65;;;6.70;59.80;;;;;;6307884;22;19995;-92
2021/04/04 04:06:08;;;;;;;25.25;14.25;;;6.60;59.60;;;;;;6307885;22;20007;-92
2021/04/04 04:08:36;;;;;;;24.00;14.95;;;6.70;59.70;;;;;;6307459;22;19999;-92
2021/04/04 04:11:02;;;;;;;20.10;12.88;;;6.70;59.60;;;;;;6307764;22;20415;-92
2021/04/04 04:13:29;;;;;;;23.45;13.82;;;6.70;59.60;;;;;;6311139;22;20003;-92
2021/04/04 04:15:56;;;;;;;24.60;14.70;;;6.80;59.80;;;;;;6323276;22;20334;-91
2021/04/04 04:18:22;;;;;;;23.30;15.38;;;6.80;59.80;;;;;;6332363;22;19980;-89
2021/04/04 04:20:49;;;;;;;20.48;13.40;;;6.90;59.90;;;;;;6334909;22;19999;-90
2021/04/04 04:23:15;;;;;;;22.02;15.27;;;6.90;59.90;;;;;;6325892;22;20084;-92
2021/04/04 04:25:42;;;;;;;27.65;14.70;;;7.00;60.00;;;;;;6309381;22;20090;-91
2021/04/04 04:28:10;;;;;;;26.05;15.02;;;7.00;59.90;;;;;;6309609;22;20002;-91
2021/04/04 04:30:37;;;;;;;22.25;14.68;;;7.10;59.90;;;;;;6308980;22;20033;-92
2021/04/04 04:33:06;;;;;;;22.38;15.35;;;7.10;60.00;;;;;;6307997;22;20042;-92
2021/04/04 04:35:33;;;;;;;18.65;13.70;;;7.20;59.90;;;;;;6307762;22;20426;-92
2021/04/04 04:38:00;;;;;;;22.35;14.77;;;7.30;59.70;;;;;;6307947;22;20023;-92
2021/04/04 04:40:27;;;;;;;20.20;13.55;;;7.40;59.60;;;;;;6309123;22;20026;-91
2021/04/04 04:42:55;;;;;;;19.80;13.65;;;7.50;59.50;;;;;;6317529;22;20011;-92
2021/04/04 04:45:29;;;;;;;22.27;13.60;;;7.60;59.50;;;;;;6318577;22;20033;-92
2021/04/04 04:47:56;;;;;;;20.67;13.10;;;7.70;59.50;;;;;;6307901;22;20026;-92
2021/04/04 04:50:23;;;;;;;20.52;12.50;;;7.80;59.20;;;;;;6307663;22;20006;-92
2021/04/04 04:52:49;;;;;;;16.40;12.25;;;7.90;59.00;;;;;;6309556;22;20003;-92
2021/04/04 04:55:18;;;;;;;21.75;14.63;;;8.00;58.70;;;;;;6309003;22;20098;-92
2021/04/04 04:57:45;;;;;;;22.77;14.98;;;8.10;58.50;;;;;;6307661;22;20076;-92
2021/04/04 05:00:11;;;;;;;22.40;14.27;;;8.10;58.20;;;;;;6308966;22;19999;-91
2021/04/04 05:02:38;;;;;;;25.35;14.80;;;8.20;58.10;;;;;;6308030;22;20033;-92
2021/04/04 05:05:08;;;;;;;18.75;13.23;;;8.40;58.00;;;;;;6307371;22;20007;-91
2021/04/04 05:07:37;;;;;;;18.60;12.65;;;8.40;57.80;;;;;;6307873;22;19996;-92
2021/04/04 05:10:05;;;;;;;19.90;13.27;;;8.50;57.80;;;;;;6307644;22;20007;-92
2021/04/04 05:12:33;;;;;;;20.15;14.02;;;8.60;57.80;;;;;;6306919;22;19999;-91
2021/04/04 05:15:03;;;;;;;15.50;11.40;;;8.70;57.70;;;;;;6308418;22;20061;-92
2021/04/04 05:17:34;;;;;;;19.42;11.35;;;8.80;57.60;;;;;;6310043;22;20019;-92
2021/04/04 05:20:00;;;;;;;19.00;10.65;;;8.90;57.40;;;;;;6311433;22;19999;-92
2021/04/04 05:22:26;;;;;;;14.65;10.38;;;8.90;57.20;;;;;;6312023;22;20367;-92
2021/04/04 05:24:53;;;;;;;13.40;9.88;;;9.00;57.10;;;;;;6311220;22;19999;-91
2021/04/04 05:27:19;;;;;;;17.02;10.27;;;9.10;57.10;;;;;;6311114;22;19999;-91
2021/04/04 05:29:45;;;;;;;16.40;9.40;;;9.10;56.90;;;;;;6309814;22;19996;-91
2021/04/04 05:32:11;;;;;;;16.48;9.57;;;9.20;56.80;;;;;;6310767;22;19991;-91
2021/04/04 05:34:39;;;;;;;15.65;10.18;;;9.30;56.70;;;;;;6309250;22;20358;-91
2021/04/04 05:37:07;;;;;;;14.73;9.05;;;9.30;56.50;;;;;;6309718;22;20003;-91
2021/04/04 05:39:37;;;;;;;10.95;8.48;;;9.30;56.60;;;;;;6310977;22;20492;-91
2021/04/04 05:42:08;;;;;;;14.77;10.05;;;9.40;56.60;;;;;;6316330;22;19999;-90
2021/04/04 05:44:48;;;;;;;13.80;8.52;;;9.40;56.70;;;;;;6305952;22;20004;-90
2021/04/04 05:47:42;;;;;;;13.40;9.07;;;9.40;56.70;;;;;;6313926;22;20003;-91
2021/04/04 05:50:29;;;;;;;13.02;7.50;;;9.40;56.60;;;;;;6323973;22;19991;-91
2021/04/04 05:53:01;;;;;;;11.35;7.88;;;9.50;56.60;;;;;;6326002;22;20026;-91
2021/04/04 05:55:38;;;;;;;11.10;6.95;;;9.50;56.40;;;;;;6334057;22;19994;-91
2021/04/04 05:58:10;;;;;;;11.73;7.65;;;9.40;56.40;;;;;;6331108;22;20438;-92
2021/04/04 06:00:41;;;;;;;10.38;7.47;;;9.40;56.50;;;;;;6328294;22;20014;-91
2021/04/04 06:03:19;;;;;;;12.57;6.93;;;9.40;56.50;;;;;;6316922;22;19995;-91
2021/04/04 06:06:23;;;;;;;11.02;8.10;;;9.40;56.50;;;;;;6317223;22;20003;-91
2021/04/04 06:09:16;;;;;;;11.85;8.00;;;9.40;56.30;;;;;;6314225;22;20002;-91
2021/04/04 06:12:20;;;;;;;9.38;6.65;;;9.40;56.50;;;;;;6310189;22;20060;-92
2021/04/04 06:15:03;;;;;;;11.17;8.17;;;9.40;56.50;;;;;;6312619;22;20002;-92
2021/04/04 06:17:36;;;;;;;12.73;8.57;;;9.40;56.50;;;;;;6311131;22;20006;-91
2021/04/04 06:20:25;;;;;;;11.38;8.00;;;9.40;56.70;;;;;;6312076;22;20023;-92
2021/04/04 06:23:08;;;;;;;10.52;7.07;;;9.40;56.80;;;;;;6314696;22;20048;-92
2021/04/04 06:25:54;;;;;;;10.82;7.47;;;9.40;56.90;;;;;;6309751;22;20013;-91
2021/04/04 06:28:37;;;;;;;13.32;8.70;;;9.40;57.20;;;;;;6309478;22;19999;-92
2021/04/04 06:31:22;;;;;;;11.38;7.45;;;9.50;56.90;;;;;;6308651;22;20003;-91
2021/04/04 06:34:07;;;;;;;12.90;7.65;;;9.50;56.90;;;;;;6309429;22;20000;-92
2021/04/04 06:36:43;;;;;;;13.57;8.18;;;9.60;56.80;;;;;;6313092;22;20008;-92
2021/04/04 06:39:30;;;;;;;12.88;9.77;;;9.60;56.60;;;;;;6319500;22;20419;-91
2021/04/04 06:42:33;;;;;;;14.15;10.38;;;9.70;57.00;;;;;;6309560;22;20006;-92
2021/04/04 06:45:25;;;;;;;14.57;10.88;;;9.80;56.30;;;;;;6272988;22;19999;-93
2021/04/04 06:48:24;;;;;;;12.90;8.75;;;9.80;56.40;;;;;;6301378;22;20434;-92
2021/04/04 06:51:13;;;;;;;8.98;6.78;;;9.80;56.60;;;;;;6308719;22;19999;-93
2021/04/04 06:54:06;;;;;;;10.13;8.35;;;9.90;56.80;;;;;;6308267;22;20068;-93
2021/04/04 06:56:45;;;;;;;9.27;7.75;;;9.90;57.00;;;;;;6309149;22;20075;-93
2021/04/04 06:59:30;;;;;;;9.57;7.00;;;10.00;56.60;;;;;;6310688;22;20003;-91
2021/04/04 07:02:06;;;;;;;16.40;9.80;;;10.10;56.50;;;;;;6311018;22;20004;-92
2021/04/04 07:04:46;;;;;;;11.93;9.15;;;10.30;55.80;;;;;;6312005;22;20052;-94
2021/04/04 07:07:31;;;;;;;16.05;9.45;;;10.40;55.50;;;;;;6310135;22;20078;-92
2021/04/04 07:10:15;;;;;;;11.15;8.27;;;10.50;55.20;;;;;;6311171;22;19999;-91
2021/04/04 07:13:11;;;;;;;12.40;8.67;;;10.60;54.40;;;;;;6311975;22;19996;-91
2021/04/04 07:15:58;;;;;;;11.85;8.30;;;10.70;54.50;;;;;;6311032;22;20011;-92
2021/04/04 07:19:01;;;;;;;8.90;6.82;;;10.90;54.00;;;;;;6310809;22;20011;-93
2021/04/04 07:22:15;;;;;;;11.25;7.97;;;11.00;53.50;;;;;;6311533;22;20052;-92
2021/04/04 07:25:07;;;;;;;12.80;8.40;;;11.20;52.60;;;;;;6311538;22;20031;-93
2021/04/04 07:28:16;;;;;;;10.95;7.28;;;11.30;52.70;;;;;;6310996;22;20009;-92
2021/04/04 07:30:52;;;;;;;9.85;6.20;;;11.50;52.10;;;;;;6316561;22;20006;-93
2021/04/04 07:33:36;;;;;;;9.23;6.88;;;11.70;50.20;;;;;;6323327;22;20002;-92
2021/04/04 07:36:23;;;;;;;8.07;6.50;;;11.80;45.80;;;;;;6324188;22;20333;-92
2021/04/04 07:39:20;;;;;;;11.45;6.85;;;11.90;45.40;;;;;;6322299;22;20015;-91
2021/04/04 07:42:16;;;;;;;10.32;7.05;;;12.00;48.10;;;;;;6318684;22;20025;-92
2021/04/04 07:45:11;;;;;;;9.10;6.53;;;12.10;44.90;;;;;;6315834;22;20419;-92
2021/04/04 07:47:51;;;;;;;8.00;5.15;;;12.10;45.10;;;;;;6252516;22;20048;-92
2021/04/04 07:50:42;;;;;;;7.72;5.38;;;12.10;45.40;;;;;;6313087;22;20306;-93
2021/04/04 07:53:18;;;;;;;8.38;6.15;;;12.10;44.20;;;;;;6289112;22;19999;-93
2021/04/04 07:55:51;;;;;;;7.78;5.22;;;12.10;44.90;;;;;;6308088;22;20019;-92
2021/04/04 07:58:27;;;;;;;6.68;4.25;;;12.20;45.20;;;;;;6312005;22;20086;-92
2021/04/04 08:01:01;;;;;;;6.32;4.57;;;12.30;45.90;;;;;;6310709;22;20026;-93
2021/04/04 08:03:58;;;;;;;9.32;6.32;;;12.40;45.80;;;;;;6310348;22;20003;-91
2021/04/04 08:06:35;;;;;;;9.20;5.95;;;12.50;41.80;;;;;;6309731;22;20011;-93
2021/04/04 08:09:35;;;;;;;7.47;5.18;;;12.40;42.00;;;;;;6310131;22;20023;-92
2021/04/04 08:12:17;;;;;;;8.38;5.38;;;12.40;41.40;;;;;;6309717;22;20003;-92
2021/04/04 08:15:01;;;;;;;7.72;5.22;;;12.30;41.10;;;;;;6321085;22;20032;-92
2021/04/04 08:17:27;;;;;;;7.22;4.35;;;12.30;41.10;;;;;;6321764;22;20098;-92
2021/04/04 08:20:00;;;;;;;9.48;7.00;;;12.40;42.80;;;;;;6294445;22;20000;-91
2021/04/04 08:22:34;;;;;;;11.40;6.72;;;12.40;42.20;;;;;;6285148;22;20003;-92
2021/04/04 08:25:16;;;;;;;9.07;5.82;;;12.30;42.20;;;;;;6308052;22;20003;-93
2021/04/04 08:27:54;;;;;;;7.15;4.97;;;12.20;41.00;;;;;;6310002;22;19992;-91
2021/04/04 08:30:31;;;;;;;6.70;5.45;;;12.00;40.40;;;;;;6309072;22;20003;-91
2021/04/04 08:33:05;;;;;;;10.05;6.13;;;11.90;40.50;;;;;;6309318;22;20001;-92
2021/04/04 08:35:43;;;;;;;7.90;5.53;;;11.90;40.80;;;;;;6308420;22;20007;-91
2021/04/04 08:38:30;;;;;;;8.00;4.45;;;11.90;40.80;;;;;;6308022;22;20446;-91
2021/04/04 08:40:58;;;;;;;6.38;4.28;;;11.90;40.70;;;;;;6307551;22;20106;-92
2021/04/04 08:43:26;;;;;;;6.97;5.85;;;11.90;40.70;;;;;;6307627;22;20427;-92
2021/04/04 08:46:11;;;;;;;8.43;5.78;;;11.90;40.80;;;;;;6309853;22;20007;-91
2021/04/04 08:48:39;;;;;;;6.70;4.78;;;12.00;40.10;;;;;;6311001;22;20066;-91
2021/04/04 08:51:10;;;;;;;7.45;5.10;;;12.00;40.70;;;;;;6310087;22;20411;-92
2021/04/04 08:53:44;;;;;;;5.10;3.92;;;12.00;40.50;;;;;;6311430;22;20006;-92
2021/04/04 08:56:13;;;;;;;6.35;5.25;;;11.90;40.50;;;;;;6312007;22;20006;-91
2021/04/04 08:58:41;;;;;;;5.72;4.60;;;11.90;40.30;;;;;;6310667;22;19999;-92
2021/04/04 09:01:24;;;;;;;8.10;4.15;;;12.00;40.30;;;;;;6309082;22;20052;-92
2021/04/04 09:03:59;;;;;;;6.72;3.88;;;12.00;40.30;;;;;;6309026;22;20018;-93
2021/04/04 09:06:34;;;;;;;7.13;4.10;;;12.10;38.90;;;;;;6308059;22;20464;-92
2021/04/04 09:09:00;;;;;;;5.82;4.18;;;12.10;39.40;;;;;;6307167;22;20003;-86
2021/04/04 09:11:28;;;;;;;6.60;4.05;;;12.20;39.10;;;;;;6306993;22;20407;-87
2021/04/04 09:13:59;;;;;;;7.18;4.22;;;12.30;40.10;;;;;;6311109;22;20021;-88
2021/04/04 09:16:25;;;;;;;6.30;4.00;;;12.50;40.10;;;;;;6332338;22;20022;-88
2021/04/04 09:18:52;;;;;;;8.35;4.93;;;12.70;40.10;;;;;;6335647;22;20000;-87
2021/04/04 09:21:21;;;;;;;6.45;4.85;;;12.90;40.70;;;;;;6335572;22;20038;-86
2021/04/04 09:23:51;;;;;;;7.05;4.28;;;13.10;38.90;;;;;;6335181;22;19983;-87
2021/04/04 09:26:22;;;;;;;4.53;3.90;;;13.10;38.00;;;;;;6335845;22;20051;-86
2021/04/04 09:28:49;;;;;;;7.40;4.82;;;13.10;37.60;;;;;;6311349;22;20082;-87
2021/04/04 09:31:24;;;;;;;5.20;3.40;;;13.20;37.60;;;;;;6310330;22;20003;-88
2021/04/04 09:34:10;;;;;;;5.32;3.65;;;13.20;37.70;;;;;;6309342;22;20292;-87
2021/04/04 09:36:50;;;;;;;8.75;3.67;;;13.40;38.20;;;;;;6310863;22;20011;-89
2021/04/04 09:39:20;;;;;;;4.63;3.40;;;13.70;38.60;;;;;;6309258;22;20011;-89
2021/04/04 09:41:47;;;;;;;6.07;3.53;;;13.90;37.60;;;;;;6309673;22;20000;-89
2021/04/04 09:44:13;;;;;;;6.80;3.65;;;14.00;36.10;;;;;;6308282;22;19999;-89
2021/04/04 09:47:00;;;;;;;7.32;3.92;;;14.10;37.90;;;;;;6308211;22;20078;-90
2021/04/04 09:49:49;;;;;;;9.85;4.50;;;14.30;38.60;;;;;;6308212;22;20085;-89
2021/04/04 09:52:29;;;;;;;4.80;3.10;;;14.50;38.90;;;;;;6308453;22;20007;-89
2021/04/04 09:55:07;;;;;;;4.95;2.80;;;14.70;38.00;;;;;;6307723;22;19999;-89
2021/04/04 09:57:47;;;;;;;4.03;3.15;;;14.80;37.00;;;;;;6307726;22;20281;-90
2021/04/04 10:00:31;;;;;;;3.35;2.78;;;14.70;35.20;;;;;;6334591;22;20046;-88
2021/04/04 10:03:31;;;;;;;5.70;3.65;;;14.40;35.60;;;;;;6308104;22;20033;-89
2021/04/04 10:06:21;;;;;;;7.00;3.30;;;14.30;35.60;;;;;;6307282;22;20375;-91
2021/04/04 10:09:08;;;;;;;5.57;3.15;;;14.30;34.20;;;;;;6310114;22;20000;-90
2021/04/04 10:11:37;;;;;;;3.55;2.83;;;14.20;35.80;;;;;;6313150;22;20487;-88
2021/04/04 10:14:18;;;;;;;3.67;2.63;;;14.20;35.40;;;;;;6311646;22;20017;-87
2021/04/04 10:17:11;;;;;;;3.92;2.70;;;14.10;35.30;;;;;;6310577;22;20458;-89
2021/04/04 10:20:03;;;;;;;4.65;2.42;;;14.10;35.80;;;;;;6308629;22;20007;-90
2021/04/04 10:22:51;;;;;;;3.10;2.50;;;14.10;36.40;;;;;;6307733;22;20010;-89
2021/04/04 10:25:19;;;;;;;3.58;2.67;;;14.40;35.30;;;;;;6307267;22;20426;-89
2021/04/04 10:27:55;;;;;;;3.83;2.90;;;14.50;36.90;;;;;;6308107;22;20003;-88
2021/04/04 10:30:23;;;;;;;5.07;3.03;;;14.70;35.20;;;;;;6307677;22;20004;-88
2021/04/04 10:32:51;;;;;;;5.70;3.10;;;14.60;35.10;;;;;;6306554;22;20476;-88
2021/04/04 10:35:40;;;;;;;5.55;2.90;;;14.70;35.80;;;;;;6309057;22;19999;-88
2021/04/04 10:38:14;;;;;;;3.15;2.50;;;14.80;35.50;;;;;;6307242;22;20049;-87
2021/04/04 10:41:01;;;;;;;3.17;2.70;;;14.90;35.20;;;;;;6307422;22;20007;-90
2021/04/04 10:43:45;;;;;;;4.80;2.63;;;14.90;35.30;;;;;;6307125;22;20002;-88
2021/04/04 10:49:04;;;;;;;4.47;3.08;;;14.60;36.00;;;;;;6308670;22;19906;-88
2021/04/04 10:51:31;;;;;;;3.00;2.53;;;14.60;36.40;;;;;;6307347;22;19996;-87
2021/04/04 10:53:59;;;;;;;3.25;2.40;;;14.60;36.10;;;;;;6310871;22;19992;-86
2021/04/04 10:56:26;;;;;;;3.70;2.75;;;14.60;35.00;;;;;;6309560;22;20431;-86
2021/04/04 10:58:52;;;;;;;3.88;2.50;;;14.40;35.70;;;;;;6306977;22;20021;-88
2021/04/04 11:01:18;;;;;;;5.18;2.45;;;14.40;36.20;;;;;;6309258;22;20014;-87
2021/04/04 11:03:45;;;;;;;3.45;2.33;;;14.30;35.80;;;;;;6308850;22;20000;-87
2021/04/04 11:06:15;;;;;;;5.03;2.88;;;14.30;35.80;;;;;;6308905;22;20447;-87
2021/04/04 11:08:42;;;;;;;7.07;3.20;;;14.40;35.80;;;;;;6328716;22;20006;-87
2021/04/04 11:11:10;;;;;;;5.25;3.55;;;14.40;36.40;;;;;;6333769;22;20070;-89
2021/04/04 11:13:38;;;;;;;5.13;3.42;;;14.30;35.90;;;;;;6333749;22;19995;-88
2021/04/04 11:16:08;;;;;;;4.35;3.38;;;14.20;35.90;;;;;;6334701;22;20006;-89
2021/04/04 11:18:46;;;;;;;3.83;3.40;;;13.90;36.10;;;;;;6334050;22;20011;-87
2021/04/04 11:21:18;;;;;;;4.88;3.85;;;13.70;36.40;;;;;;6292741;22;20019;-86
2021/04/04 11:23:48;;;;;;;5.35;3.90;;;13.50;37.00;;;;;;6309435;22;20356;-89
2021/04/04 11:26:34;;;;;;;5.70;3.90;;;13.40;37.20;;;;;;6284233;22;20064;-90
2021/04/04 11:29:44;;;;;;;5.97;4.05;;;13.30;37.50;;;;;;6314279;22;20082;-89
2021/04/04 11:32:22;;;;;;;6.38;3.78;;;13.10;38.10;;;;;;6217051;22;20010;-90
2021/04/04 11:35:02;;;;;;;5.15;3.90;;;13.10;38.70;;;;;;6306061;22;20019;-89
2021/04/04 11:37:31;;;;;;;4.82;4.03;;;13.10;38.90;;;;;;6301083;22;20007;-87
2021/04/04 11:40:21;;;;;;;5.03;4.00;;;13.00;38.60;;;;;;6304941;22;20015;-88
2021/04/04 11:43:58;;;;;;;5.97;3.90;;;12.90;39.00;;;;;;6309764;22;20012;-94
2021/04/04 11:47:03;;;;;;;7.90;4.50;;;12.90;39.20;;;;;;6307365;22;20415;-87
2021/04/04 11:49:44;;;;;;;7.53;5.00;;;13.00;39.30;;;;;;6306146;22;20003;-86
2021/04/04 11:52:10;;;;;;;4.95;3.45;;;12.90;39.20;;;;;;6305261;22;20007;-86
2021/04/04 11:55:10;;;;;;;6.10;4.53;;;12.80;39.60;;;;;;6306301;22;20446;-88
2021/04/04 11:57:38;;;;;;;5.40;3.80;;;12.60;39.50;;;;;;6308110;22;20003;-88
2021/04/04 12:00:29;;;;;;;5.90;3.70;;;12.40;40.40;;;;;;6308090;22;20006;-90
2021/04/04 12:03:26;;;;;;;6.05;4.53;;;12.30;42.20;;;;;;6313287;22;20030;-91
2021/04/04 12:06:03;;;;;;;;;;;;;;;;;;;;;
2021/04/04 12:08:55;;;;;;;8.85;3.75;;;11.90;42.70;;;;;;6310362;22;20047;-92
2021/04/04 12:11:31;;;;;;;6.50;4.53;;;11.80;43.10;;;;;;6296483;22;20000;-94
2021/04/04 12:14:02;;;;;;;6.07;4.82;;;11.60;43.20;;;;;;6326766;22;20004;-90
2021/04/04 12:22:02;;;;;;;5.47;3.70;;;11.60;43.60;;;;;;6332247;22;20023;-96
2021/04/04 12:25:22;;;;;;;5.28;4.25;;;11.70;43.70;;;;;;6318780;22;20009;-96
2021/04/04 12:27:50;;;;;;;5.15;4.45;;;11.90;43.50;;;;;;6318212;22;20091;-94
2021/04/04 12:30:31;;;;;;;5.45;4.10;;;12.00;43.20;;;;;;6315452;22;20051;-94
2021/04/04 12:33:20;;;;;;;5.35;3.72;;;12.10;43.10;;;;;;6314679;22;20005;-93
2021/04/04 12:36:03;;;;;;;5.22;4.15;;;12.30;42.70;;;;;;6316808;22;20002;-93
2021/04/04 12:38:34;;;;;;;4.68;4.00;;;12.50;42.50;;;;;;6298848;22;20002;-95
2021/04/04 12:41:13;;;;;;;9.68;4.30;;;12.70;42.30;;;;;;6330106;22;20076;-93
2021/04/04 12:43:41;;;;;;;5.63;4.22;;;12.70;42.00;;;;;;6354085;22;20040;-93
2021/04/04 12:46:12;;;;;;;6.50;4.03;;;12.70;41.70;;;;;;6322874;22;20003;-91
2021/04/04 12:48:45;;;;;;;3.95;3.15;;;12.70;41.60;;;;;;6323547;22;19999;-93
2021/04/04 12:51:18;;;;;;;5.30;3.77;;;12.70;41.80;;;;;;6325452;22;20026;-91
2021/04/04 12:53:50;;;;;;;4.57;3.40;;;12.70;41.90;;;;;;6288506;22;20003;-89
2021/04/04 12:56:44;;;;;;;4.78;3.53;;;12.80;41.90;;;;;;6315138;22;20010;-94
2021/04/04 12:59:27;;;;;;;6.13;4.05;;;13.00;41.30;;;;;;6315340;22;20007;-94
2021/04/04 13:01:59;;;;;;;5.40;4.20;;;13.20;40.30;;;;;;6290527;22;20006;-94
2021/04/04 13:04:36;;;;;;;5.50;3.97;;;13.30;41.00;;;;;;6297957;22;20018;-94
2021/04/04 13:07:10;;;;;;;3.75;3.22;;;13.40;40.50;;;;;;6364190;22;19988;-95
2021/04/04 13:10:08;;;;;;;;;;;;;;;;;;;;;
2021/04/04 13:12:44;;;;;;;5.03;3.83;;;13.50;41.00;;;;;;6334132;22;20124;-95
2021/04/04 13:15:48;;;;;;;5.47;3.92;;;13.60;40.90;;;;;;6313065;22;20006;-94
2021/04/04 13:18:32;;;;;;;7.78;4.47;;;13.50;40.80;;;;;;6375942;22;20010;-96
2021/04/04 13:21:10;;;;;;;4.45;3.72;;;13.40;41.00;;;;;;6338808;22;20007;-92
2021/04/04 13:24:02;;;;;;;4.65;4.18;;;13.30;41.40;;;;;;6357296;22;20033;-92
2021/04/04 13:26:35;;;;;;;6.05;3.90;;;13.40;41.20;;;;;;6354355;22;20037;-92
2021/04/04 13:29:21;;;;;;;4.40;3.65;;;13.80;42.40;;;;;;6357463;22;20014;-96
2021/04/04 13:32:14;;;;;;;5.15;4.53;;;14.30;41.80;;;;;;6322540;22;20440;-94
2021/04/04 13:34:41;;;;;;;5.20;3.97;;;14.70;40.30;;;;;;6340778;22;20002;-93